Time;durP1;ratioP1;P1;durP2;ratioP2;P2;SDS_P1;SDS_P2;PMS_P1;PMS_P2;Temp;Humidity;BMP_temperature;BMP_pressure;BME280_temperature;BME280_humidity;BME280_pressure;Samples;Min_cycle;Max_cycle;Signal;HPM_P1;HPM_P2
2021/05/05 00:04:45;;;;;;;7.72;3.15;;;;;;;;;;5074375;28;20408;-68
2021/05/05 00:07:11;;;;;;;8.80;3.13;;;;;;;;;;5072711;28;20047;-69
2021/05/05 00:09:37;;;;;;;8.43;2.70;;;;;;;;;;5083628;28;20093;-69
2021/05/05 00:12:03;;;;;;;8.45;3.05;;;;;;;;;;5091326;28;20028;-69
2021/05/05 00:14:29;;;;;;;9.43;3.10;;;;;;;;;;5076138;28;20507;-69
2021/05/05 00:16:55;;;;;;;7.03;2.80;;;;;;;;;;5081423;28;20020;-69
2021/05/05 00:19:22;;;;;;;6.85;2.63;;;;;;;;;;5075033;28;20031;-69
2021/05/05 00:21:48;;;;;;;6.40;2.30;;;;;;;;;;5081612;28;20071;-69
2021/05/05 00:24:15;;;;;;;6.60;2.75;;;;;;;;;;5085346;28;20044;-69
2021/05/05 00:26:41;;;;;;;3.75;1.63;;;;;;;;;;5081247;28;20021;-69
2021/05/05 00:29:08;;;;;;;8.52;3.22;;;;;;;;;;5087034;28;20024;-69
2021/05/05 00:31:34;;;;;;;8.95;2.92;;;;;;;;;;5081688;28;20189;-69
2021/05/05 00:34:00;;;;;;;7.07;3.03;;;;;;;;;;5085520;28;20016;-69
2021/05/05 00:36:28;;;;;;;7.18;2.72;;;;;;;;;;5078151;28;20459;-69
2021/05/05 00:38:55;;;;;;;6.85;2.55;;;;;;;;;;5078867;28;20032;-69
2021/05/05 00:41:21;;;;;;;11.38;2.83;;;;;;;;;;5077173;28;20020;-69
2021/05/05 00:43:47;;;;;;;13.63;3.45;;;;;;;;;;5077127;28;20107;-69
2021/05/05 00:46:13;;;;;;;8.68;2.53;;;;;;;;;;5085682;28;20118;-69
2021/05/05 00:48:40;;;;;;;7.43;3.08;;;;;;;;;;5078151;28;20103;-68
2021/05/05 00:51:06;;;;;;;7.78;2.20;;;;;;;;;;5081113;28;20016;-69
2021/05/05 00:53:33;;;;;;;9.15;2.40;;;;;;;;;;5074171;28;20154;-69
2021/05/05 00:56:00;;;;;;;6.25;2.08;;;;;;;;;;5089423;28;20016;-68
2021/05/05 00:58:26;;;;;;;8.27;2.55;;;;;;;;;;5080517;28;20569;-68
2021/05/05 01:00:53;;;;;;;5.15;1.88;;;;;;;;;;5081568;28;20103;-68
2021/05/05 01:03:20;;;;;;;8.73;2.35;;;;;;;;;;5078812;28;20032;-68
2021/05/05 01:05:46;;;;;;;9.65;2.97;;;;;;;;;;5080973;28;20036;-68
2021/05/05 01:08:13;;;;;;;4.90;1.77;;;;;;;;;;5078148;28;20027;-68
2021/05/05 01:10:39;;;;;;;7.50;3.03;;;;;;;;;;5081470;28;20032;-68
2021/05/05 01:13:05;;;;;;;5.55;2.30;;;;;;;;;;5086878;28;20036;-68
2021/05/05 01:15:31;;;;;;;5.82;1.83;;;;;;;;;;5080158;28;20031;-68
2021/05/05 01:17:57;;;;;;;10.05;2.53;;;;;;;;;;5080680;28;20028;-68
2021/05/05 01:20:27;;;;;;;9.20;2.67;;;;;;;;;;5077153;28;20077;-68
2021/05/05 01:22:53;;;;;;;6.35;2.00;;;;;;;;;;5080972;28;20028;-68
2021/05/05 01:25:19;;;;;;;6.72;2.80;;;;;;;;;;5073144;28;20085;-68
2021/05/05 01:27:45;;;;;;;6.15;2.10;;;;;;;;;;5090096;28;20053;-68
2021/05/05 01:30:12;;;;;;;8.35;2.30;;;;;;;;;;5087043;28;20045;-68
2021/05/05 01:32:39;;;;;;;6.40;2.10;;;;;;;;;;5077836;28;20381;-68
2021/05/05 01:35:06;;;;;;;8.00;2.70;;;;;;;;;;5076731;28;20023;-68
2021/05/05 01:37:32;;;;;;;9.70;3.00;;;;;;;;;;5074131;28;20392;-68
2021/05/05 01:39:58;;;;;;;6.72;2.60;;;;;;;;;;5072787;28;20177;-70
2021/05/05 01:42:24;;;;;;;9.27;2.88;;;;;;;;;;5078850;28;20028;-71
2021/05/05 01:44:51;;;;;;;8.20;2.88;;;;;;;;;;5079093;28;20036;-68
2021/05/05 01:47:17;;;;;;;7.60;2.60;;;;;;;;;;5085844;28;20035;-68
2021/05/05 01:49:47;;;;;;;7.38;3.13;;;;;;;;;;5085870;28;20032;-68
2021/05/05 01:52:13;;;;;;;;;;;;;;;;;;5081613;28;20044;-68
2021/05/05 01:54:39;;;;;;;6.28;2.40;;;;;;;;;;5076489;28;19904;-70
2021/05/05 01:57:24;;;;;;;7.63;2.72;;;;;;;;;;5074617;28;20020;-68
2021/05/05 01:59:51;;;;;;;7.85;2.65;;;;;;;;;;5077618;28;20020;-67
2021/05/05 02:02:17;;;;;;;5.45;2.40;;;;;;;;;;5076852;28;20043;-68
2021/05/05 02:04:43;;;;;;;7.97;3.17;;;;;;;;;;5078667;28;20071;-70
2021/05/05 02:07:09;;;;;;;9.70;3.65;;;;;;;;;;5083358;28;20069;-70
2021/05/05 02:09:35;;;;;;;6.10;2.80;;;;;;;;;;5086565;28;20036;-68
2021/05/05 02:12:01;;;;;;;8.43;3.17;;;;;;;;;;5088416;28;20423;-67
2021/05/05 02:14:27;;;;;;;8.98;3.08;;;;;;;;;;5079470;28;20115;-67
2021/05/05 02:16:54;;;;;;;8.70;3.38;;;;;;;;;;5082361;28;20043;-70
2021/05/05 02:19:20;;;;;;;4.85;2.03;;;;;;;;;;5085671;28;20031;-68
2021/05/05 02:21:46;;;;;;;6.80;3.13;;;;;;;;;;5082021;28;20023;-67
2021/05/05 02:24:12;;;;;;;10.10;2.80;;;;;;;;;;5078804;28;20016;-67
2021/05/05 02:26:38;;;;;;;8.13;2.78;;;;;;;;;;5084638;28;20036;-69
2021/05/05 02:29:05;;;;;;;10.30;3.72;;;;;;;;;;5088745;28;20023;-69
2021/05/05 02:31:31;;;;;;;7.47;2.88;;;;;;;;;;5079666;28;20364;-69
2021/05/05 02:33:57;;;;;;;6.70;2.60;;;;;;;;;;5082872;28;20372;-69
2021/05/05 02:36:23;;;;;;;8.30;3.70;;;;;;;;;;5086930;28;20519;-67
2021/05/05 02:38:49;;;;;;;9.07;3.28;;;;;;;;;;5076419;28;20516;-68
2021/05/05 02:41:15;;;;;;;9.70;3.65;;;;;;;;;;5079094;28;20390;-69
2021/05/05 02:43:41;;;;;;;11.43;4.18;;;;;;;;;;5072111;28;20654;-69
2021/05/05 02:46:07;;;;;;;8.88;3.55;;;;;;;;;;5076068;28;20476;-69
2021/05/05 02:48:33;;;;;;;8.23;4.05;;;;;;;;;;5083876;28;20032;-70
2021/05/05 02:51:00;;;;;;;9.23;4.20;;;;;;;;;;5079097;28;20050;-69
2021/05/05 02:53:26;;;;;;;8.88;3.67;;;;;;;;;;5076149;28;20040;-70
2021/05/05 02:55:53;;;;;;;14.88;4.50;;;;;;;;;;5073874;28;20340;-69
2021/05/05 02:58:19;;;;;;;10.57;3.63;;;;;;;;;;5079456;28;20041;-70
2021/05/05 03:00:45;;;;;;;6.70;2.80;;;;;;;;;;5079481;28;20103;-69
2021/05/05 03:03:12;;;;;;;8.52;3.45;;;;;;;;;;5077366;28;20493;-69
2021/05/05 03:05:38;;;;;;;9.32;4.30;;;;;;;;;;5078795;28;20056;-69
2021/05/05 03:08:05;;;;;;;7.65;2.63;;;;;;;;;;5083322;28;20027;-69
2021/05/05 03:10:31;;;;;;;7.85;3.15;;;;;;;;;;5090138;28;20031;-69
2021/05/05 03:12:57;;;;;;;8.60;3.15;;;;;;;;;;5075663;28;20036;-70
2021/05/05 03:15:23;;;;;;;8.15;3.60;;;;;;;;;;5084829;28;20107;-70
2021/05/05 03:17:49;;;;;;;11.02;3.00;;;;;;;;;;5087024;28;20029;-69
2021/05/05 03:20:15;;;;;;;5.82;2.65;;;;;;;;;;5076859;28;20071;-70
2021/05/05 03:22:41;;;;;;;7.55;2.85;;;;;;;;;;5072700;28;20472;-69
2021/05/05 03:25:08;;;;;;;8.10;4.05;;;;;;;;;;5068262;28;20028;-69
2021/05/05 03:27:34;;;;;;;8.63;3.53;;;;;;;;;;5085138;28;20036;-69
2021/05/05 03:30:00;;;;;;;6.07;2.70;;;;;;;;;;5079682;28;20023;-69
2021/05/05 03:32:26;;;;;;;8.60;2.20;;;;;;;;;;5071800;28;20115;-67
2021/05/05 03:34:53;;;;;;;8.55;3.70;;;;;;;;;;5083632;28;20023;-69
2021/05/05 03:37:19;;;;;;;7.65;3.25;;;;;;;;;;5093701;28;20046;-69
2021/05/05 03:39:45;;;;;;;8.75;3.65;;;;;;;;;;5082926;28;20074;-69
2021/05/05 03:42:11;;;;;;;7.88;3.33;;;;;;;;;;5082299;28;20028;-70
2021/05/05 03:44:37;;;;;;;8.60;3.40;;;;;;;;;;5081800;28;20085;-70
2021/05/05 03:47:04;;;;;;;10.25;3.90;;;;;;;;;;5074805;28;20027;-70
2021/05/05 03:49:30;;;;;;;10.93;3.53;;;;;;;;;;5085571;28;20065;-70
2021/05/05 03:51:56;;;;;;;12.25;4.00;;;;;;;;;;5094565;28;20023;-69
2021/05/05 03:54:22;;;;;;;11.68;4.43;;;;;;;;;;5083114;28;20020;-69
2021/05/05 03:56:48;;;;;;;4.72;2.03;;;;;;;;;;5079947;28;20020;-69
2021/05/05 03:59:14;;;;;;;12.77;5.45;;;;;;;;;;5080054;28;20059;-69
2021/05/05 04:01:40;;;;;;;9.68;5.10;;;;;;;;;;5080634;28;20376;-69
2021/05/05 04:04:06;;;;;;;10.48;4.68;;;;;;;;;;5083740;28;20406;-69
2021/05/05 04:06:32;;;;;;;11.07;5.32;;;;;;;;;;5089052;28;20057;-69
2021/05/05 04:08:58;;;;;;;10.15;4.53;;;;;;;;;;5083656;28;20032;-69
2021/05/05 04:11:25;;;;;;;9.45;3.80;;;;;;;;;;5078215;28;20032;-71
2021/05/05 04:13:51;;;;;;;12.32;5.80;;;;;;;;;;5074580;28;20025;-71
2021/05/05 04:16:17;;;;;;;12.43;5.40;;;;;;;;;;5077679;28;20103;-70
2021/05/05 04:18:43;;;;;;;12.25;5.28;;;;;;;;;;5068464;28;20028;-71
2021/05/05 04:21:10;;;;;;;11.90;5.20;;;;;;;;;;5071269;28;20112;-72
2021/05/05 04:23:36;;;;;;;11.60;5.03;;;;;;;;;;5070360;28;20779;-72
2021/05/05 04:26:03;;;;;;;11.38;5.43;;;;;;;;;;5069469;28;20047;-70
2021/05/05 04:28:29;;;;;;;9.52;4.53;;;;;;;;;;5068006;28;20123;-69
2021/05/05 04:30:55;;;;;;;12.80;4.97;;;;;;;;;;5077490;28;20130;-69
2021/05/05 04:33:21;;;;;;;11.10;4.20;;;;;;;;;;5068422;28;20472;-69
2021/05/05 04:35:47;;;;;;;10.80;3.45;;;;;;;;;;5076891;28;20021;-70
2021/05/05 04:38:14;;;;;;;9.40;4.35;;;;;;;;;;5076340;28;20077;-69
2021/05/05 04:40:40;;;;;;;13.77;6.85;;;;;;;;;;5071993;28;20039;-69
2021/05/05 04:43:06;;;;;;;12.20;4.75;;;;;;;;;;5079086;28;20028;-70
2021/05/05 04:45:34;;;;;;;13.15;5.75;;;;;;;;;;5073193;28;20098;-70
2021/05/05 04:48:00;;;;;;;10.48;4.47;;;;;;;;;;5074713;28;20646;-70
2021/05/05 04:50:27;;;;;;;8.32;3.55;;;;;;;;;;5077763;28;20040;-71
2021/05/05 04:52:53;;;;;;;10.10;4.25;;;;;;;;;;5084613;28;20131;-71
2021/05/05 04:55:19;;;;;;;10.93;5.50;;;;;;;;;;5088146;28;20020;-71
2021/05/05 04:57:45;;;;;;;14.80;7.05;;;;;;;;;;5073983;28;20092;-71
2021/05/05 05:00:12;;;;;;;14.82;6.82;;;;;;;;;;5084303;28;20434;-71
2021/05/05 05:02:38;;;;;;;9.55;4.85;;;;;;;;;;5072411;28;20055;-69
2021/05/05 05:05:05;;;;;;;10.48;4.63;;;;;;;;;;5081502;28;20032;-69
2021/05/05 05:07:35;;;;;;;12.65;4.90;;;;;;;;;;5077089;28;20116;-70
2021/05/05 05:10:01;;;;;;;13.07;5.20;;;;;;;;;;5076099;28;20021;-71
2021/05/05 05:12:27;;;;;;;14.65;7.68;;;;;;;;;;5072461;28;20047;-69
2021/05/05 05:14:53;;;;;;;17.33;10.40;;;;;;;;;;5080088;28;20036;-69
2021/05/05 05:17:20;;;;;;;12.48;5.13;;;;;;;;;;5074906;28;20064;-70
2021/05/05 05:19:46;;;;;;;14.57;6.40;;;;;;;;;;5074656;28;20025;-69
2021/05/05 05:22:12;;;;;;;15.98;7.30;;;;;;;;;;5080846;28;20029;-69
2021/05/05 05:24:38;;;;;;;14.88;6.25;;;;;;;;;;5075919;28;20129;-70
2021/05/05 05:27:04;;;;;;;18.13;6.13;;;;;;;;;;5086310;28;20050;-68
2021/05/05 05:29:30;;;;;;;15.88;7.50;;;;;;;;;;5086033;28;20153;-69
2021/05/05 05:31:56;;;;;;;16.33;8.02;;;;;;;;;;5080385;28;20041;-70
2021/05/05 05:34:23;;;;;;;19.65;7.70;;;;;;;;;;5086140;28;20198;-67
2021/05/05 05:36:49;;;;;;;14.52;6.18;;;;;;;;;;5074144;28;20027;-68
2021/05/05 05:39:15;;;;;;;18.35;6.90;;;;;;;;;;5079246;28;20039;-70
2021/05/05 05:41:41;;;;;;;17.00;7.13;;;;;;;;;;5074626;28;20028;-70
2021/05/05 05:44:08;;;;;;;19.30;7.07;;;;;;;;;;5086784;28;20024;-69
2021/05/05 05:46:38;;;;;;;14.25;7.50;;;;;;;;;;5090182;28;20023;-69
2021/05/05 05:49:04;;;;;;;13.93;5.28;;;;;;;;;;5075385;28;20024;-69
2021/05/05 05:51:31;;;;;;;14.73;7.43;;;;;;;;;;5074813;28;20404;-69
2021/05/05 05:53:57;;;;;;;18.85;10.85;;;;;;;;;;5077096;28;20528;-69
2021/05/05 05:56:24;;;;;;;17.15;8.48;;;;;;;;;;5083288;28;20048;-69
2021/05/05 05:58:50;;;;;;;15.90;7.18;;;;;;;;;;5076295;28;20020;-70
2021/05/05 06:01:16;;;;;;;17.35;8.10;;;;;;;;;;5078529;28;20020;-72
2021/05/05 06:03:42;;;;;;;16.15;7.18;;;;;;;;;;5070170;28;20016;-74
2021/05/05 06:06:08;;;;;;;17.98;9.27;;;;;;;;;;5077584;28;20067;-72
2021/05/05 06:08:37;;;;;;;22.23;12.40;;;;;;;;;;5077400;28;20040;-69
2021/05/05 06:11:03;;;;;;;18.70;7.32;;;;;;;;;;5073069;28;20063;-68
2021/05/05 06:13:29;;;;;;;13.23;7.22;;;;;;;;;;5075775;28;20035;-68
2021/05/05 06:15:55;;;;;;;11.50;5.82;;;;;;;;;;5073320;28;20020;-69
2021/05/05 06:18:21;;;;;;;10.27;3.83;;;;;;;;;;5072460;28;20108;-69
2021/05/05 06:20:47;;;;;;;8.88;3.88;;;;;;;;;;5076561;28;20156;-68
2021/05/05 06:23:13;;;;;;;8.65;3.85;;;;;;;;;;5084585;28;20519;-68
2021/05/05 06:25:40;;;;;;;9.10;3.28;;;;;;;;;;5085912;28;20070;-68
2021/05/05 06:28:06;;;;;;;10.63;4.60;;;;;;;;;;5085081;28;20371;-68
2021/05/05 06:30:32;;;;;;;10.75;4.55;;;;;;;;;;5083939;28;20017;-68
2021/05/05 06:32:58;;;;;;;11.20;4.75;;;;;;;;;;5077060;28;20080;-70
2021/05/05 06:35:24;;;;;;;11.25;5.20;;;;;;;;;;5069658;28;20381;-68
2021/05/05 06:37:50;;;;;;;9.85;4.47;;;;;;;;;;5075436;28;20020;-68
2021/05/05 06:40:16;;;;;;;13.48;5.97;;;;;;;;;;5079495;28;20070;-70
2021/05/05 06:42:42;;;;;;;24.33;6.55;;;;;;;;;;5080087;28;20105;-70
2021/05/05 06:45:09;;;;;;;16.42;8.45;;;;;;;;;;5084929;28;20039;-67
2021/05/05 06:47:35;;;;;;;17.85;10.93;;;;;;;;;;5084961;28;20051;-70
2021/05/05 06:50:03;;;;;;;10.75;4.85;;;;;;;;;;5078461;28;20032;-67
2021/05/05 06:52:29;;;;;;;14.63;6.70;;;;;;;;;;5081206;28;20499;-67
2021/05/05 06:54:55;;;;;;;19.58;9.38;;;;;;;;;;5077070;28;20143;-67
2021/05/05 06:57:21;;;;;;;18.90;7.47;;;;;;;;;;5081157;28;20408;-70
2021/05/05 06:59:47;;;;;;;17.52;7.40;;;;;;;;;;5071946;28;20504;-69
2021/05/05 07:02:13;;;;;;;22.00;12.90;;;;;;;;;;5087202;28;20038;-67
2021/05/05 07:04:40;;;;;;;13.02;6.32;;;;;;;;;;5076875;28;20024;-66
2021/05/05 07:07:06;;;;;;;16.65;8.25;;;;;;;;;;5086893;28;20126;-68
2021/05/05 07:09:32;;;;;;;19.02;11.00;;;;;;;;;;5080634;28;20024;-67
2021/05/05 07:11:58;;;;;;;11.77;5.88;;;;;;;;;;5069289;28;20554;-67
2021/05/05 07:14:24;;;;;;;11.73;4.43;;;;;;;;;;5074237;28;20017;-67
2021/05/05 07:16:50;;;;;;;12.68;5.47;;;;;;;;;;5075976;28;20028;-68
2021/05/05 07:19:16;;;;;;;12.27;6.10;;;;;;;;;;5079698;28;20032;-67
2021/05/05 07:21:42;;;;;;;13.27;7.70;;;;;;;;;;5084797;28;20521;-65
2021/05/05 07:24:08;;;;;;;11.30;5.43;;;;;;;;;;5081621;28;20446;-66
2021/05/05 07:26:34;;;;;;;12.43;5.75;;;;;;;;;;5082861;28;20038;-66
2021/05/05 07:29:00;;;;;;;11.98;4.82;;;;;;;;;;5079393;28;20029;-66
2021/05/05 07:31:26;;;;;;;10.93;5.07;;;;;;;;;;5070972;28;20021;-68
2021/05/05 07:33:52;;;;;;;10.18;4.38;;;;;;;;;;5084357;28;20046;-68
2021/05/05 07:36:25;;;;;;;10.23;5.13;;;;;;;;;;5087425;28;20028;-66
2021/05/05 07:39:08;;;;;;;17.60;7.70;;;;;;;;;;5086375;28;20085;-66
2021/05/05 07:46:57;;;;;;;13.15;5.85;;;;;;;;;;5073943;28;20169;-66
2021/05/05 07:49:24;;;;;;;13.77;6.00;;;;;;;;;;5094029;28;20028;-66
2021/05/05 07:51:51;;;;;;;13.18;5.85;;;;;;;;;;5079970;28;20047;-66
2021/05/05 07:54:18;;;;;;;15.50;7.53;;;;;;;;;;5080942;28;20024;-66
2021/05/05 07:56:44;;;;;;;15.10;5.72;;;;;;;;;;5080230;28;20430;-68
2021/05/05 07:59:12;;;;;;;16.20;6.97;;;;;;;;;;5081571;28;20514;-66
2021/05/05 08:01:38;;;;;;;18.15;7.88;;;;;;;;;;5083878;28;20077;-66
2021/05/05 08:04:05;;;;;;;14.13;6.82;;;;;;;;;;5086527;28;20383;-66
2021/05/05 08:06:32;;;;;;;15.57;7.85;;;;;;;;;;5074443;28;20135;-66
2021/05/05 08:08:58;;;;;;;13.98;7.68;;;;;;;;;;5088481;28;20040;-66
2021/05/05 08:11:25;;;;;;;8.05;3.65;;;;;;;;;;5080663;28;20141;-66
2021/05/05 08:13:52;;;;;;;16.25;7.28;;;;;;;;;;5073768;28;20633;-66
2021/05/05 08:16:18;;;;;;;11.35;4.93;;;;;;;;;;5076543;28;20521;-66
2021/05/05 08:18:44;;;;;;;15.25;7.50;;;;;;;;;;5083001;28;20387;-66
2021/05/05 08:21:10;;;;;;;13.50;6.65;;;;;;;;;;5084269;28;20487;-68
2021/05/05 08:23:37;;;;;;;14.38;7.13;;;;;;;;;;5081772;28;20031;-66
2021/05/05 08:26:04;;;;;;;17.95;8.65;;;;;;;;;;5091250;28;20082;-66
2021/05/05 08:28:30;;;;;;;17.27;8.35;;;;;;;;;;5083572;28;20031;-66
2021/05/05 08:30:57;;;;;;;17.33;8.98;;;;;;;;;;5086659;28;20030;-66
2021/05/05 08:33:24;;;;;;;19.25;10.40;;;;;;;;;;5084950;28;20036;-66
2021/05/05 08:35:50;;;;;;;13.75;6.95;;;;;;;;;;5078364;28;20416;-66
2021/05/05 08:38:16;;;;;;;16.50;8.07;;;;;;;;;;5091249;28;20024;-66
2021/05/05 08:40:42;;;;;;;17.77;10.18;;;;;;;;;;5086076;28;20012;-66
2021/05/05 08:43:08;;;;;;;17.88;9.40;;;;;;;;;;5086344;28;20034;-67
2021/05/05 08:45:35;;;;;;;13.18;6.55;;;;;;;;;;5085735;28;20031;-67
2021/05/05 08:48:05;;;;;;;15.82;6.90;;;;;;;;;;5097081;28;20024;-66
2021/05/05 08:50:32;;;;;;;10.27;3.83;;;;;;;;;;5090288;28;20020;-67
2021/05/05 08:52:59;;;;;;;11.80;6.13;;;;;;;;;;5087731;28;20525;-67
2021/05/05 08:55:26;;;;;;;13.13;6.03;;;;;;;;;;5078652;28;20023;-67
2021/05/05 08:57:52;;;;;;;11.45;5.45;;;;;;;;;;5093899;28;20519;-67
2021/05/05 09:00:23;;;;;;;9.93;5.00;;;;;;;;;;5102321;28;20219;-67
2021/05/05 09:02:49;;;;;;;11.57;5.45;;;;;;;;;;5080770;28;20032;-66
2021/05/05 09:05:16;;;;;;;9.60;4.30;;;;;;;;;;5086283;28;20031;-66
2021/05/05 09:07:42;;;;;;;12.73;5.22;;;;;;;;;;5087565;28;20051;-66
2021/05/05 09:10:10;;;;;;;10.52;4.30;;;;;;;;;;5073934;28;20039;-66
2021/05/05 09:12:38;;;;;;;9.98;3.42;;;;;;;;;;5086085;28;20024;-66
2021/05/05 09:15:11;;;;;;;9.95;3.97;;;;;;;;;;5086332;28;20029;-66
2021/05/05 09:17:41;;;;;;;8.50;3.13;;;;;;;;;;5083369;28;20085;-66
2021/05/05 09:20:07;;;;;;;;;;;;;;;;;;5079726;28;20029;-66
2021/05/05 09:22:41;;;;;;;8.52;3.70;;;;;;;;;;5071934;28;19904;-66
2021/05/05 09:25:12;;;;;;;12.55;5.15;;;;;;;;;;5084178;28;20020;-66
2021/05/05 09:27:39;;;;;;;8.27;3.53;;;;;;;;;;5088760;28;20024;-66
2021/05/05 09:30:06;;;;;;;8.02;3.45;;;;;;;;;;5088823;28;20031;-67
2021/05/05 09:32:47;;;;;;;11.35;4.20;;;;;;;;;;5087382;28;20036;-66
2021/05/05 09:35:13;;;;;;;13.52;5.63;;;;;;;;;;5086977;28;20016;-66
2021/05/05 09:37:39;;;;;;;12.00;4.65;;;;;;;;;;5090913;28;20471;-67
2021/05/05 09:40:10;;;;;;;11.35;4.50;;;;;;;;;;5084370;28;20492;-68
2021/05/05 09:42:36;;;;;;;14.70;4.35;;;;;;;;;;5074721;28;20031;-67
2021/05/05 09:45:10;;;;;;;9.52;4.25;;;;;;;;;;5093063;28;20119;-67
2021/05/05 09:47:55;;;;;;;10.82;4.03;;;;;;;;;;5091224;28;20114;-66
2021/05/05 09:50:34;;;;;;;7.80;3.47;;;;;;;;;;5092027;28;20027;-67
2021/05/05 09:53:18;;;;;;;10.52;4.43;;;;;;;;;;5079027;28;20027;-67
2021/05/05 09:55:45;;;;;;;9.88;4.38;;;;;;;;;;5085306;28;20026;-67
2021/05/05 09:58:31;;;;;;;9.73;4.15;;;;;;;;;;5094075;28;20012;-67
2021/05/05 10:01:10;;;;;;;9.80;4.38;;;;;;;;;;5085439;28;20012;-67
2021/05/05 10:03:42;;;;;;;11.70;5.05;;;;;;;;;;5079272;28;20028;-67
2021/05/05 10:06:17;;;;;;;11.00;5.07;;;;;;;;;;5076924;28;20136;-67
2021/05/05 10:08:43;;;;;;;13.07;4.68;;;;;;;;;;5082965;28;20025;-67
2021/05/05 10:11:09;;;;;;;12.48;4.82;;;;;;;;;;5088131;28;20016;-67
2021/05/05 10:13:37;;;;;;;11.45;5.50;;;;;;;;;;5081427;28;20491;-67
2021/05/05 10:16:03;;;;;;;17.52;5.57;;;;;;;;;;5083890;28;20017;-67
2021/05/05 10:18:29;;;;;;;13.18;5.88;;;;;;;;;;5080322;28;20064;-67
2021/05/05 10:20:56;;;;;;;10.63;5.00;;;;;;;;;;5090572;28;20016;-67
2021/05/05 10:23:22;;;;;;;12.05;5.38;;;;;;;;;;5080931;28;20028;-67
2021/05/05 10:25:49;;;;;;;9.63;4.82;;;;;;;;;;5080898;28;20106;-67
2021/05/05 10:28:15;;;;;;;10.45;3.92;;;;;;;;;;5068880;28;20036;-66
2021/05/05 10:30:42;;;;;;;10.25;4.28;;;;;;;;;;5087215;28;20023;-67
2021/05/05 10:33:17;;;;;;;14.35;4.20;;;;;;;;;;5078701;28;20032;-67
2021/05/05 10:35:43;;;;;;;14.52;6.28;;;;;;;;;;5073940;28;20473;-67
2021/05/05 10:38:29;;;;;;;7.70;4.00;;;;;;;;;;5078670;28;20620;-67
2021/05/05 10:41:11;;;;;;;10.35;4.50;;;;;;;;;;5074526;28;20033;-67
2021/05/05 10:44:07;;;;;;;15.90;4.82;;;;;;;;;;5083427;28;20017;-67
2021/05/05 10:46:34;;;;;;;9.15;3.47;;;;;;;;;;5010054;28;20052;-67
2021/05/05 10:49:14;;;;;;;10.63;4.22;;;;;;;;;;5009671;28;20030;-67
2021/05/05 10:51:47;;;;;;;9.75;4.30;;;;;;;;;;5000754;28;20034;-67
2021/05/05 10:54:14;;;;;;;7.45;2.78;;;;;;;;;;5000916;28;20101;-67
2021/05/05 10:56:40;;;;;;;9.88;3.42;;;;;;;;;;4989870;28;20027;-67
2021/05/05 10:59:08;;;;;;;10.48;2.88;;;;;;;;;;5000742;28;20037;-67
2021/05/05 11:01:37;;;;;;;11.82;5.13;;;;;;;;;;5007548;28;20102;-66
2021/05/05 11:04:03;;;;;;;11.18;4.55;;;;;;;;;;5008450;28;20084;-66
2021/05/05 11:06:33;;;;;;;14.07;4.10;;;;;;;;;;5006804;28;20352;-67
2021/05/05 11:09:14;;;;;;;9.82;3.70;;;;;;;;;;4984742;28;20301;-67
2021/05/05 11:11:41;;;;;;;8.50;4.18;;;;;;;;;;4995687;28;20947;-67
2021/05/05 11:14:08;;;;;;;10.38;3.72;;;;;;;;;;5004419;28;20029;-67
2021/05/05 11:16:55;;;;;;;13.38;5.05;;;;;;;;;;5000852;28;20415;-66
2021/05/05 11:19:37;;;;;;;15.48;5.80;;;;;;;;;;5003460;28;20034;-66
2021/05/05 11:22:10;;;;;;;9.90;4.30;;;;;;;;;;5015449;28;20115;-69
2021/05/05 11:24:41;;;;;;;7.15;3.25;;;;;;;;;;5078070;28;20440;-67
2021/05/05 11:27:09;;;;;;;9.48;3.85;;;;;;;;;;5079291;28;20020;-66
2021/05/05 11:29:42;;;;;;;8.93;2.78;;;;;;;;;;5071137;28;20111;-67
2021/05/05 11:32:09;;;;;;;9.32;3.63;;;;;;;;;;5088304;28;20526;-69
2021/05/05 11:34:41;;;;;;;14.73;2.78;;;;;;;;;;5078814;28;20068;-67
2021/05/05 11:37:10;;;;;;;5.05;1.98;;;;;;;;;;5082547;28;20097;-67
2021/05/05 11:39:55;;;;;;;9.38;2.90;;;;;;;;;;5078142;28;20514;-67
2021/05/05 11:42:41;;;;;;;14.13;3.20;;;;;;;;;;5089257;28;20024;-67
2021/05/05 11:45:11;;;;;;;7.25;2.60;;;;;;;;;;5085238;28;20040;-67
2021/05/05 11:47:41;;;;;;;13.68;5.90;;;;;;;;;;5089608;28;20486;-69
2021/05/05 11:50:07;;;;;;;;;;;;;;;;;;5070411;28;20025;-67
2021/05/05 11:52:35;;;;;;;8.07;2.88;;;;;;;;;;5078848;28;19916;-69
2021/05/05 11:55:07;;;;;;;10.75;4.90;;;;;;;;;;5081094;28;20871;-69
2021/05/05 11:57:36;;;;;;;9.07;4.75;;;;;;;;;;5072955;28;20035;-69
2021/05/05 12:00:11;;;;;;;8.40;4.00;;;;;;;;;;5081741;28;20341;-66
2021/05/05 12:02:44;;;;;;;12.93;6.72;;;;;;;;;;5082032;28;20029;-68
2021/05/05 12:05:10;;;;;;;10.52;4.90;;;;;;;;;;5080407;28;20035;-68
2021/05/05 12:07:36;;;;;;;10.55;4.03;;;;;;;;;;5084888;28;20036;-69
2021/05/05 12:10:03;;;;;;;11.95;5.68;;;;;;;;;;5080835;28;20024;-67
2021/05/05 12:12:29;;;;;;;9.95;5.07;;;;;;;;;;5077678;28;20041;-69
2021/05/05 12:14:59;;;;;;;10.38;3.75;;;;;;;;;;5089597;28;20020;-68
2021/05/05 12:17:30;;;;;;;9.77;4.40;;;;;;;;;;5077545;28;20039;-66
2021/05/05 12:19:57;;;;;;;8.77;3.80;;;;;;;;;;5084165;28;20054;-66
2021/05/05 12:22:24;;;;;;;7.07;3.28;;;;;;;;;;5082707;28;20035;-67
2021/05/05 12:25:06;;;;;;;10.73;3.20;;;;;;;;;;5091063;28;20028;-66
2021/05/05 12:27:32;;;;;;;8.55;2.55;;;;;;;;;;5081503;28;20027;-69
2021/05/05 12:30:02;;;;;;;3.13;1.55;;;;;;;;;;5084149;28;20384;-69
2021/05/05 12:32:42;;;;;;;4.25;1.95;;;;;;;;;;5085098;28;20032;-67
2021/05/05 12:35:10;;;;;;;5.10;1.90;;;;;;;;;;5079131;28;20028;-67
2021/05/05 12:37:36;;;;;;;6.40;2.60;;;;;;;;;;5080954;28;20040;-67
2021/05/05 12:40:05;;;;;;;6.65;1.75;;;;;;;;;;5085053;28;20035;-67
2021/05/05 12:42:34;;;;;;;7.68;2.30;;;;;;;;;;5081641;28;20318;-67
2021/05/05 12:45:08;;;;;;;7.43;1.55;;;;;;;;;;5080095;28;20422;-67
2021/05/05 12:47:34;;;;;;;4.13;1.55;;;;;;;;;;5083589;28;20023;-67
2021/05/05 12:50:00;;;;;;;7.82;2.15;;;;;;;;;;5079013;28;20032;-68
2021/05/05 12:52:32;;;;;;;7.68;2.15;;;;;;;;;;5078141;28;20028;-67
2021/05/05 12:54:59;;;;;;;8.45;2.28;;;;;;;;;;5079586;28;20481;-68
2021/05/05 12:57:30;;;;;;;8.05;2.30;;;;;;;;;;5088317;28;20031;-67
2021/05/05 12:59:56;;;;;;;9.98;3.20;;;;;;;;;;5094130;28;20024;-68
2021/05/05 13:02:28;;;;;;;7.63;3.42;;;;;;;;;;5085770;28;20039;-68
2021/05/05 13:05:05;;;;;;;7.65;2.47;;;;;;;;;;5082922;28;20026;-67
2021/05/05 13:07:34;;;;;;;9.85;2.83;;;;;;;;;;5080362;28;20040;-68
2021/05/05 13:10:10;;;;;;;7.47;3.03;;;;;;;;;;5085905;28;20043;-68
2021/05/05 13:13:25;;;;;;;9.73;2.80;;;;;;;;;;5087170;28;20438;-68
2021/05/05 13:32:54;;;;;;;5.85;1.80;;;;;;;;;;5080233;28;20032;-68
2021/05/05 13:35:21;;;;;;;4.63;1.55;;;;;;;;;;5090100;28;20035;-67
2021/05/05 13:38:14;;;;;;;3.13;1.15;;;;;;;;;;5085873;28;20032;-67
2021/05/05 13:40:43;;;;;;;5.40;1.80;;;;;;;;;;5085637;28;20033;-69
2021/05/05 13:43:17;;;;;;;5.25;1.70;;;;;;;;;;5089457;28;20488;-68
2021/05/05 13:45:47;;;;;;;7.38;2.03;;;;;;;;;;5080194;28;20036;-67
2021/05/05 13:48:25;;;;;;;7.82;2.00;;;;;;;;;;5081339;28;20095;-67
2021/05/05 13:50:52;;;;;;;8.57;2.20;;;;;;;;;;5075206;28;20024;-67
2021/05/05 13:53:18;;;;;;;8.27;2.80;;;;;;;;;;5077225;28;20039;-67
2021/05/05 13:55:44;;;;;;;5.95;2.38;;;;;;;;;;5084219;28;20095;-68
2021/05/05 13:58:10;;;;;;;7.03;2.50;;;;;;;;;;5087525;28;20027;-67
2021/05/05 14:00:37;;;;;;;9.05;2.50;;;;;;;;;;5084591;28;20575;-67
2021/05/05 14:03:03;;;;;;;9.05;2.70;;;;;;;;;;5082471;28;20032;-67
2021/05/05 14:05:35;;;;;;;7.13;2.60;;;;;;;;;;5082686;28;20398;-68
2021/05/05 14:08:01;;;;;;;6.97;2.10;;;;;;;;;;5081781;28;20027;-67
2021/05/05 14:10:27;;;;;;;8.27;3.00;;;;;;;;;;5078405;28;20494;-67
2021/05/05 14:12:53;;;;;;;7.60;2.28;;;;;;;;;;5086009;28;20047;-67
2021/05/05 14:15:19;;;;;;;9.27;3.00;;;;;;;;;;5086720;28;20021;-67
2021/05/05 14:17:49;;;;;;;8.75;2.58;;;;;;;;;;5085842;28;20036;-67
2021/05/05 14:20:15;;;;;;;8.75;3.10;;;;;;;;;;5071927;28;20056;-68
2021/05/05 14:22:42;;;;;;;12.32;3.55;;;;;;;;;;5081068;28;20167;-68
2021/05/05 14:25:08;;;;;;;8.63;3.33;;;;;;;;;;5071758;28;20023;-68
2021/05/05 14:27:36;;;;;;;6.68;2.60;;;;;;;;;;5087658;28;20033;-68
2021/05/05 14:30:03;;;;;;;9.98;2.20;;;;;;;;;;5073850;28;20357;-68
2021/05/05 14:32:29;;;;;;;6.95;2.70;;;;;;;;;;5087019;28;20140;-68
2021/05/05 14:34:55;;;;;;;8.60;2.88;;;;;;;;;;5085471;28;20107;-67
2021/05/05 14:37:22;;;;;;;13.75;3.72;;;;;;;;;;5093438;28;20428;-68
2021/05/05 14:39:48;;;;;;;12.35;3.78;;;;;;;;;;5084100;28;20027;-68
2021/05/05 14:42:20;;;;;;;4.88;2.08;;;;;;;;;;5078042;28;20168;-68
2021/05/05 14:45:09;;;;;;;11.07;2.85;;;;;;;;;;5078508;28;20070;-67
2021/05/05 14:50:36;;;;;;;7.72;2.38;;;;;;;;;;5035398;28;20036;-68
2021/05/05 14:53:02;;;;;;;11.82;3.05;;;;;;;;;;5079056;28;20078;-67
2021/05/05 14:55:28;;;;;;;8.43;2.88;;;;;;;;;;5086929;28;20491;-68
2021/05/05 14:58:05;;;;;;;11.30;3.22;;;;;;;;;;5085367;28;20024;-67
2021/05/05 15:00:33;;;;;;;9.73;3.42;;;;;;;;;;5080139;28;20480;-67
2021/05/05 15:02:59;;;;;;;6.35;2.15;;;;;;;;;;5080327;28;20028;-67
2021/05/05 15:05:25;;;;;;;6.95;2.65;;;;;;;;;;5083631;28;20552;-68
2021/05/05 15:07:55;;;;;;;5.93;2.42;;;;;;;;;;5085632;28;20068;-68
2021/05/05 15:10:46;;;;;;;5.43;2.30;;;;;;;;;;5079519;28;20051;-67
2021/05/05 15:13:17;;;;;;;7.22;2.78;;;;;;;;;;5078527;28;20029;-67